createdAt,value
2019-05-05T00:00:35.123Z,1006.47
2019-05-05T00:01:34.398Z,1006.43
2019-05-05T00:02:34.221Z,1006.46
2019-05-05T00:03:34.287Z,1006.46
2019-05-05T00:04:34.733Z,1006.49
2019-05-05T00:05:35.219Z,1006.43
2019-05-05T00:06:34.236Z,1006.48
2019-05-05T00:07:34.817Z,1006.46
2019-05-05T00:08:32.741Z,1006.48
2019-05-05T00:09:34.731Z,1006.43
2019-05-05T00:10:34.663Z,1006.48
2019-05-05T00:11:35.014Z,1006.50
2019-05-05T00:12:34.349Z,1006.49
2019-05-05T00:13:34.566Z,1006.49
2019-05-05T00:14:32.687Z,1006.53
2019-05-05T00:15:34.449Z,1006.51
2019-05-05T00:16:32.535Z,1006.52
2019-05-05T00:17:34.268Z,1006.53
2019-05-05T00:18:34.534Z,1006.55
2019-05-05T00:19:33.993Z,1006.58
2019-05-05T00:20:34.405Z,1006.59
2019-05-05T00:22:32.382Z,1006.59
2019-05-05T00:23:34.393Z,1006.59
2019-05-05T00:24:34.872Z,1006.58
2019-05-05T00:25:34.242Z,1006.59
2019-05-05T00:28:32.232Z,1006.60
2019-05-05T00:29:32.218Z,1006.63
2019-05-05T00:30:34.323Z,1006.62
2019-05-05T00:31:32.163Z,1006.60
2019-05-05T00:32:32.121Z,1006.61
2019-05-05T00:33:34.217Z,1006.60
2019-05-05T00:34:32.375Z,1006.64
2019-05-05T00:35:32.049Z,1006.61
2019-05-05T00:36:32.365Z,1006.59
2019-05-05T00:37:32.090Z,1006.57
2019-05-05T00:38:32.016Z,1006.60
2019-05-05T00:39:34.337Z,1006.60
2019-05-05T00:41:31.997Z,1006.57
2019-05-05T00:42:31.864Z,1006.63
2019-05-05T00:43:34.408Z,1006.60
2019-05-05T00:44:31.820Z,1006.61
2019-05-05T00:45:31.793Z,1006.59
2019-05-05T00:46:31.771Z,1006.62
2019-05-05T00:47:31.729Z,1006.61
2019-05-05T00:48:31.707Z,1006.61
2019-05-05T00:50:31.942Z,1006.62
2019-05-05T00:51:31.872Z,1006.65
2019-05-05T00:52:31.720Z,1006.66
2019-05-05T00:54:31.644Z,1006.67
2019-05-05T00:55:31.554Z,1006.64
2019-05-05T00:56:31.492Z,1006.67
2019-05-05T00:58:31.550Z,1006.65
2019-05-05T01:00:31.385Z,1006.64
2019-05-05T01:01:31.363Z,1006.64
2019-05-05T01:02:31.442Z,1006.63
2019-05-05T01:03:31.308Z,1006.62
2019-05-05T01:04:31.296Z,1006.63
2019-05-05T01:05:31.464Z,1006.64
2019-05-05T01:06:31.629Z,1006.62
2019-05-05T01:07:31.402Z,1006.65
2019-05-05T01:08:31.195Z,1006.66
2019-05-05T01:09:31.170Z,1006.71
2019-05-05T01:10:31.229Z,1006.66
2019-05-05T01:11:31.103Z,1006.68
2019-05-05T01:12:31.086Z,1006.71
2019-05-05T01:15:31.291Z,1006.73
2019-05-05T01:16:30.975Z,1006.70
2019-05-05T01:17:30.953Z,1006.70
2019-05-05T01:18:30.915Z,1006.70
2019-05-05T01:19:31.092Z,1006.70
2019-05-05T01:20:30.888Z,1006.73
2019-05-05T01:21:30.850Z,1006.75
2019-05-05T01:22:31.354Z,1006.79
2019-05-05T01:23:30.787Z,1006.75
2019-05-05T01:25:30.742Z,1006.72
2019-05-05T01:26:30.875Z,1006.76
2019-05-05T01:27:30.685Z,1006.73
2019-05-05T01:28:30.944Z,1006.80
2019-05-05T01:29:30.623Z,1006.78
2019-05-05T01:31:30.577Z,1006.81
2019-05-05T01:32:30.541Z,1006.84
2019-05-05T01:33:30.514Z,1006.83
2019-05-05T01:34:30.742Z,1006.84
2019-05-05T01:36:30.434Z,1006.85
2019-05-05T01:40:30.629Z,1006.89
2019-05-05T01:41:30.305Z,1006.91
2019-05-05T01:43:30.254Z,1006.89
2019-05-05T01:44:30.534Z,1006.92
2019-05-05T01:45:30.202Z,1006.90
2019-05-05T01:46:30.524Z,1006.95
2019-05-05T01:47:30.248Z,1006.90
2019-05-05T01:50:30.063Z,1006.95
2019-05-05T01:52:31.031Z,1006.98
2019-05-05T01:53:30.235Z,1006.99
2019-05-05T01:54:29.968Z,1006.94
2019-05-05T01:55:30.239Z,1006.96
2019-05-05T01:56:29.904Z,1006.94
2019-05-05T01:57:29.880Z,1006.97
2019-05-05T01:58:29.850Z,1006.96
2019-05-05T01:59:30.131Z,1006.95
2019-05-05T02:00:29.801Z,1007.00
2019-05-05T02:01:29.771Z,1006.99
2019-05-05T02:02:30.142Z,1007.01
2019-05-05T02:03:29.819Z,1007.01
2019-05-05T02:04:29.793Z,1006.99
2019-05-05T02:05:29.766Z,1007.01
2019-05-05T02:06:29.941Z,1006.96
2019-05-05T02:07:29.711Z,1007.04
2019-05-05T02:08:29.587Z,1006.96
2019-05-05T02:09:29.559Z,1007.00
2019-05-05T02:10:29.635Z,1007.02
2019-05-05T02:11:29.705Z,1007.06
2019-05-05T02:12:29.480Z,1007.04
2019-05-05T02:13:29.854Z,1007.02
2019-05-05T02:14:29.439Z,1007.01
2019-05-05T02:15:29.404Z,1007.04
2019-05-05T02:16:29.516Z,1007.00
2019-05-05T02:17:29.459Z,1006.99
2019-05-05T02:19:29.395Z,1007.00
2019-05-05T02:20:31.338Z,1007.05
2019-05-05T02:21:29.491Z,1007.02
2019-05-05T02:22:29.368Z,1007.04
2019-05-05T02:24:29.360Z,1007.04
2019-05-05T02:25:29.287Z,1007.06
2019-05-05T02:26:29.241Z,1007.07
2019-05-05T02:27:29.472Z,1007.07
2019-05-05T02:28:29.201Z,1007.10
2019-05-05T02:29:29.129Z,1007.11
2019-05-05T02:30:29.157Z,1007.10
2019-05-05T02:31:28.978Z,1007.09
2019-05-05T02:32:29.049Z,1007.09
2019-05-05T02:33:28.921Z,1007.07
2019-05-05T02:34:29.203Z,1007.12
2019-05-05T02:35:28.879Z,1007.11
2019-05-05T02:36:28.841Z,1007.10
2019-05-05T02:37:28.832Z,1007.13
2019-05-05T02:38:28.793Z,1007.09
2019-05-05T02:39:28.882Z,1007.16
2019-05-05T02:41:28.767Z,1007.17
2019-05-05T02:42:29.102Z,1007.16
2019-05-05T02:43:28.665Z,1007.16
2019-05-05T02:44:28.929Z,1007.20
2019-05-05T02:45:28.636Z,1007.16
2019-05-05T02:46:28.577Z,1007.17
2019-05-05T02:47:28.849Z,1007.19
2019-05-05T02:48:28.530Z,1007.18
2019-05-05T02:49:28.821Z,1007.23
2019-05-05T02:50:28.478Z,1007.24
2019-05-05T02:51:28.454Z,1007.25
2019-05-05T02:52:28.535Z,1007.25
2019-05-05T02:53:28.495Z,1007.29
2019-05-05T02:54:28.485Z,1007.29
2019-05-05T02:55:28.720Z,1007.31
2019-05-05T02:56:28.315Z,1007.27
2019-05-05T02:57:28.288Z,1007.29
2019-05-05T02:58:28.265Z,1007.29
2019-05-05T02:59:28.233Z,1007.25
2019-05-05T03:00:28.508Z,1007.28
2019-05-05T03:01:28.478Z,1007.34
2019-05-05T03:02:28.154Z,1007.30
2019-05-05T03:03:28.327Z,1007.29
2019-05-05T03:04:28.095Z,1007.31
2019-05-05T03:05:28.076Z,1007.32
2019-05-05T03:06:28.046Z,1007.31
2019-05-05T03:07:28.325Z,1007.31
2019-05-05T03:08:27.991Z,1007.31
2019-05-05T03:10:27.940Z,1007.33
2019-05-05T03:11:27.914Z,1007.31
2019-05-05T03:12:27.882Z,1007.33
2019-05-05T03:15:28.105Z,1007.43
2019-05-05T03:16:27.783Z,1007.44
2019-05-05T03:17:27.749Z,1007.39
2019-05-05T03:18:27.722Z,1007.41
2019-05-05T03:19:27.704Z,1007.41
2019-05-05T03:20:27.688Z,1007.40
2019-05-05T03:21:27.943Z,1007.43
2019-05-05T03:22:27.616Z,1007.42
2019-05-05T03:23:27.993Z,1007.39
2019-05-05T03:24:27.566Z,1007.42
2019-05-05T03:25:27.642Z,1007.42
2019-05-05T03:26:27.510Z,1007.43
2019-05-05T03:27:27.480Z,1007.40
2019-05-05T03:28:27.760Z,1007.42
2019-05-05T03:29:27.630Z,1007.43
2019-05-05T03:30:27.399Z,1007.43
2019-05-05T03:31:27.375Z,1007.50
2019-05-05T03:33:27.332Z,1007.51
2019-05-05T03:34:27.311Z,1007.55
2019-05-05T03:35:27.572Z,1007.57
2019-05-05T03:36:27.537Z,1007.56
2019-05-05T03:37:27.311Z,1007.57
2019-05-05T03:39:27.161Z,1007.55
2019-05-05T03:40:27.129Z,1007.58
2019-05-05T03:41:27.402Z,1007.55
2019-05-05T03:42:27.380Z,1007.62
2019-05-05T03:43:27.163Z,1007.59
2019-05-05T03:44:27.019Z,1007.57
2019-05-05T03:45:27.203Z,1007.63
2019-05-05T03:46:26.969Z,1007.62
2019-05-05T03:47:26.983Z,1007.63
2019-05-05T03:48:26.968Z,1007.66
2019-05-05T03:49:27.188Z,1007.69
2019-05-05T03:50:26.976Z,1007.69
2019-05-05T03:51:26.952Z,1007.69
2019-05-05T03:52:26.808Z,1007.69
2019-05-05T03:53:26.788Z,1007.76
2019-05-05T03:54:26.753Z,1007.73
2019-05-05T03:55:26.729Z,1007.75
2019-05-05T03:56:27.030Z,1007.71
2019-05-05T03:57:26.674Z,1007.77
2019-05-05T03:58:26.646Z,1007.75
2019-05-05T03:59:26.620Z,1007.77
2019-05-05T04:00:26.595Z,1007.78
2019-05-05T04:01:26.658Z,1007.75
2019-05-05T04:02:26.536Z,1007.82
2019-05-05T04:03:26.816Z,1007.82
2019-05-05T04:04:26.509Z,1007.85
2019-05-05T04:05:26.487Z,1007.86
2019-05-05T04:06:26.425Z,1007.86
2019-05-05T04:08:26.373Z,1007.93
2019-05-05T04:09:26.342Z,1007.91
2019-05-05T04:10:26.622Z,1007.97
2019-05-05T04:11:26.372Z,1007.94
2019-05-05T04:12:26.260Z,1007.96
2019-05-05T04:13:26.234Z,1007.97
2019-05-05T04:14:26.217Z,1007.95
2019-05-05T04:16:26.456Z,1007.98
2019-05-05T04:17:26.544Z,1008.01
2019-05-05T04:18:26.450Z,1007.98
2019-05-05T04:19:26.088Z,1008.02
2019-05-05T04:20:26.185Z,1008.03
2019-05-05T04:21:33.498Z,1008.05
2019-05-05T04:22:26.303Z,1008.07
2019-05-05T04:23:25.969Z,1008.09
2019-05-05T04:24:25.936Z,1008.10
2019-05-05T04:25:25.909Z,1008.11
2019-05-05T04:26:25.890Z,1008.12
2019-05-05T04:27:25.859Z,1008.09
2019-05-05T04:28:26.128Z,1008.15
2019-05-05T04:29:25.902Z,1008.17
2019-05-05T04:30:25.777Z,1008.18
2019-05-05T04:31:25.744Z,1008.21
2019-05-05T04:32:25.838Z,1008.23
2019-05-05T04:33:25.981Z,1008.22
2019-05-05T04:35:25.756Z,1008.28
2019-05-05T04:36:25.709Z,1008.33
2019-05-05T04:37:25.620Z,1008.33
2019-05-05T04:38:25.859Z,1008.30
2019-05-05T04:40:25.504Z,1008.32
2019-05-05T04:41:25.776Z,1008.35
2019-05-05T04:42:25.459Z,1008.35
2019-05-05T04:43:25.432Z,1008.39
2019-05-05T04:44:25.475Z,1008.34
2019-05-05T04:46:25.589Z,1008.38
2019-05-05T04:47:25.570Z,1008.42
2019-05-05T04:48:25.292Z,1008.46
2019-05-05T04:49:25.278Z,1008.39
2019-05-05T04:50:25.959Z,1008.46
2019-05-05T04:51:25.213Z,1008.47
2019-05-05T04:52:25.190Z,1008.45
2019-05-05T04:53:25.256Z,1008.45
2019-05-05T04:55:25.104Z,1008.47
2019-05-05T04:56:25.379Z,1008.44
2019-05-05T04:57:25.060Z,1008.49
2019-05-05T04:58:25.031Z,1008.50
2019-05-05T04:59:25.004Z,1008.47
2019-05-05T05:00:25.010Z,1008.46
2019-05-05T05:01:25.292Z,1008.51
2019-05-05T05:02:24.918Z,1008.57
2019-05-05T05:03:24.990Z,1008.55
2019-05-05T05:05:25.174Z,1008.58
2019-05-05T05:06:24.822Z,1008.58
2019-05-05T05:08:24.887Z,1008.58
2019-05-05T05:09:25.046Z,1008.56
2019-05-05T05:10:24.726Z,1008.53
2019-05-05T05:11:24.742Z,1008.56
2019-05-05T05:12:24.753Z,1008.59
2019-05-05T05:13:24.694Z,1008.57
2019-05-05T05:14:24.849Z,1008.59
2019-05-05T05:15:24.687Z,1008.56
2019-05-05T05:16:24.849Z,1008.58
2019-05-05T05:17:25.076Z,1008.61
2019-05-05T05:18:24.497Z,1008.60
2019-05-05T05:19:24.476Z,1008.61
2019-05-05T05:20:24.709Z,1008.60
2019-05-05T05:21:24.436Z,1008.63
2019-05-05T05:22:24.495Z,1008.66
2019-05-05T05:23:24.867Z,1008.69
2019-05-05T05:24:24.439Z,1008.71
2019-05-05T05:25:24.315Z,1008.70
2019-05-05T05:26:24.338Z,1008.73
2019-05-05T05:27:24.584Z,1008.72
2019-05-05T05:29:24.232Z,1008.74
2019-05-05T05:30:24.484Z,1008.80
2019-05-05T05:31:24.511Z,1008.80
2019-05-05T05:33:24.107Z,1008.88
2019-05-05T05:34:24.099Z,1008.87
2019-05-05T05:36:24.804Z,1008.87
2019-05-05T05:37:24.405Z,1008.86
2019-05-05T05:38:24.300Z,1008.88
2019-05-05T05:39:24.438Z,1008.92
2019-05-05T05:40:24.026Z,1008.93
2019-05-05T05:41:23.960Z,1008.94
2019-05-05T05:42:24.203Z,1008.98
2019-05-05T05:43:25.390Z,1008.98
2019-05-05T05:44:26.390Z,1009.01
2019-05-05T05:45:23.872Z,1009.00
2019-05-05T05:46:24.121Z,1009.03
2019-05-05T05:47:24.461Z,1009.05
2019-05-05T05:48:23.844Z,1009.05
2019-05-05T05:49:24.231Z,1009.05
2019-05-05T05:50:24.542Z,1009.08
2019-05-05T05:52:24.225Z,1009.06
2019-05-05T05:53:24.415Z,1009.01
2019-05-05T05:56:24.941Z,1009.06
2019-05-05T05:57:24.116Z,1009.08
2019-05-05T05:58:24.498Z,1009.09
2019-05-05T05:59:24.722Z,1009.13
2019-05-05T06:00:23.817Z,1009.10
2019-05-05T06:01:24.026Z,1009.08
2019-05-05T06:02:24.223Z,1009.11
2019-05-05T06:03:24.554Z,1009.13
2019-05-05T06:04:23.628Z,1009.14
2019-05-05T06:05:23.905Z,1009.13
2019-05-05T06:06:24.158Z,1009.17
2019-05-05T06:07:24.507Z,1009.17
2019-05-05T06:08:24.275Z,1009.18
2019-05-05T06:09:23.781Z,1009.17
2019-05-05T06:10:26.673Z,1009.17
2019-05-05T06:11:23.872Z,1009.20
2019-05-05T06:12:24.564Z,1009.20
2019-05-05T06:13:24.174Z,1009.19
2019-05-05T06:14:24.708Z,1009.25
2019-05-05T06:15:24.458Z,1009.26
2019-05-05T06:16:23.556Z,1009.25
2019-05-05T06:17:23.753Z,1009.30
2019-05-05T06:18:24.387Z,1009.31
2019-05-05T06:19:24.634Z,1009.31
2019-05-05T06:20:23.838Z,1009.37
2019-05-05T06:22:29.301Z,1009.40
2019-05-05T06:23:24.030Z,1009.40
2019-05-05T06:24:24.003Z,1009.38
2019-05-05T06:26:24.044Z,1009.37
2019-05-05T06:27:23.638Z,1009.43
2019-05-05T06:28:23.686Z,1009.46
2019-05-05T06:29:23.901Z,1009.43
2019-05-05T06:30:24.419Z,1009.44
2019-05-05T06:32:23.830Z,1009.45
2019-05-05T06:33:24.116Z,1009.47
2019-05-05T06:35:24.410Z,1009.48
2019-05-05T06:36:23.447Z,1009.53
2019-05-05T06:37:23.827Z,1009.50
2019-05-05T06:38:24.179Z,1009.54
2019-05-05T06:39:24.148Z,1009.54
2019-05-05T06:40:23.365Z,1009.55
2019-05-05T06:41:23.713Z,1009.58
2019-05-05T06:42:23.670Z,1009.56
2019-05-05T06:43:23.724Z,1009.59
2019-05-05T06:44:24.622Z,1009.59
2019-05-05T06:45:23.877Z,1009.57
2019-05-05T06:46:23.631Z,1009.56
2019-05-05T06:47:23.697Z,1009.59
2019-05-05T06:48:23.720Z,1009.59
2019-05-05T06:49:23.787Z,1009.58
2019-05-05T06:50:24.193Z,1009.63
2019-05-05T06:51:24.386Z,1009.61
2019-05-05T06:52:24.735Z,1009.60
2019-05-05T06:53:23.922Z,1009.61
2019-05-05T06:55:22.224Z,1009.60
2019-05-05T06:57:24.025Z,1009.61
2019-05-05T06:59:24.336Z,1009.69
2019-05-05T07:00:24.071Z,1009.70
2019-05-05T07:01:22.045Z,1009.70
2019-05-05T07:02:23.680Z,1009.77
2019-05-05T07:05:23.562Z,1009.71
2019-05-05T07:06:23.806Z,1009.72
2019-05-05T07:07:23.637Z,1009.68
2019-05-05T07:08:24.070Z,1009.68
2019-05-05T07:09:24.479Z,1009.68
2019-05-05T07:10:21.765Z,1009.68
2019-05-05T07:11:23.652Z,1009.72
2019-05-05T07:13:21.811Z,1009.71
2019-05-05T07:14:23.559Z,1009.70
2019-05-05T07:15:23.732Z,1009.74
2019-05-05T07:16:21.628Z,1009.69
2019-05-05T07:17:21.601Z,1009.71
2019-05-05T07:18:21.636Z,1009.73
2019-05-05T07:20:21.546Z,1009.76
2019-05-05T07:24:23.707Z,1009.90
2019-05-05T07:25:21.565Z,1010.00
2019-05-05T07:26:23.668Z,1010.06
2019-05-05T07:27:21.454Z,1010.09
2019-05-05T07:29:23.736Z,1010.19
2019-05-05T07:30:21.632Z,1010.25
2019-05-05T07:31:21.299Z,1010.26
2019-05-05T07:32:21.370Z,1010.33
2019-05-05T07:33:23.763Z,1010.40
2019-05-05T07:34:21.332Z,1010.47
2019-05-05T07:35:21.207Z,1010.61
2019-05-05T07:36:21.288Z,1010.74
2019-05-05T07:37:23.702Z,1010.87
2019-05-05T07:38:21.251Z,1011.08
2019-05-05T07:39:21.134Z,1011.52
2019-05-05T07:40:21.697Z,1012.33
2019-05-05T07:41:21.122Z,1013.07
2019-05-05T07:42:21.072Z,1013.74
2019-05-05T07:43:21.056Z,1014.12
2019-05-05T07:44:26.627Z,1013.82
2019-05-05T07:45:25.114Z,1013.88
2019-05-05T07:46:21.130Z,1014.58
2019-05-05T07:47:20.984Z,1015.30
2019-05-05T07:49:21.040Z,1015.78
2019-05-05T07:50:29.464Z,1015.66
2019-05-05T07:52:20.895Z,1015.58
2019-05-05T07:53:21.018Z,1016.09
2019-05-05T07:54:21.084Z,1016.62
2019-05-05T07:56:23.649Z,1016.85
2019-05-05T07:57:20.819Z,1016.88
2019-05-05T07:59:21.113Z,1016.98
2019-05-05T08:01:20.819Z,1012.67
2019-05-05T08:02:23.517Z,1015.89
2019-05-05T08:03:23.497Z,1017.13
2019-05-05T08:04:20.670Z,1018.17
2019-05-05T08:05:21.121Z,1018.13
2019-05-05T08:06:20.640Z,1018.09
2019-05-05T08:07:20.625Z,1016.78
2019-05-05T08:09:22.644Z,1018.59
2019-05-05T08:10:20.579Z,1018.74
2019-05-05T08:12:21.388Z,1016.26
2019-05-05T08:13:20.542Z,1016.03
2019-05-05T08:14:20.515Z,1018.19
2019-05-05T08:15:20.500Z,1015.04
2019-05-05T08:16:20.971Z,1018.31
2019-05-05T08:17:20.865Z,1017.75
2019-05-05T08:18:20.760Z,1017.46
2019-05-05T08:19:20.493Z,1017.60
2019-05-05T08:20:20.459Z,1017.67
2019-05-05T08:21:20.402Z,1017.67
2019-05-05T08:22:20.802Z,1017.41
2019-05-05T08:23:30.303Z,1017.24
2019-05-05T08:24:20.384Z,1017.01
2019-05-05T08:25:34.504Z,1016.69
2019-05-05T08:26:20.392Z,1016.35
2019-05-05T08:27:21.061Z,1016.42
2019-05-05T08:28:20.602Z,1016.71
2019-05-05T08:29:20.353Z,1016.79
2019-05-05T08:30:20.343Z,1016.39
2019-05-05T08:31:20.857Z,1016.37
2019-05-05T08:32:20.260Z,1016.56
2019-05-05T08:33:20.263Z,1016.48
2019-05-05T08:35:20.556Z,1015.79
2019-05-05T08:36:20.250Z,1015.48
2019-05-05T08:37:20.353Z,1015.10
2019-05-05T08:39:21.603Z,1014.57
2019-05-05T08:40:20.143Z,1014.29
2019-05-05T08:41:20.490Z,1014.13
2019-05-05T08:42:20.130Z,1013.83
2019-05-05T08:43:20.104Z,1013.62
2019-05-05T08:44:20.290Z,1013.45
2019-05-05T08:45:20.075Z,1013.32
2019-05-05T08:46:20.069Z,1013.24
2019-05-05T08:47:20.397Z,1013.17
2019-05-05T08:49:20.316Z,1010.40
2019-05-05T08:50:20.024Z,1010.30
2019-05-05T08:51:20.022Z,1012.79
2019-05-05T08:52:20.020Z,1012.99
2019-05-05T08:53:20.255Z,1010.77
2019-05-05T08:54:19.944Z,1010.89
2019-05-05T08:55:19.930Z,1010.45
2019-05-05T08:56:19.963Z,1010.50
2019-05-05T08:57:20.001Z,1012.73
2019-05-05T08:59:20.142Z,1012.54
2019-05-05T09:00:19.891Z,1012.47
2019-05-05T09:01:19.852Z,1012.44
2019-05-05T09:02:19.861Z,1012.51
2019-05-05T09:03:19.851Z,1012.52
2019-05-05T09:04:19.870Z,1012.60
2019-05-05T09:05:19.805Z,1012.63
2019-05-05T09:06:20.086Z,1011.25
2019-05-05T09:07:19.981Z,1010.54
2019-05-05T09:08:19.766Z,1012.53
2019-05-05T09:09:19.754Z,1010.92
2019-05-05T09:10:19.861Z,1010.51
2019-05-05T09:11:19.721Z,1010.46
2019-05-05T09:12:19.722Z,1010.33
2019-05-05T09:13:19.990Z,1010.24
2019-05-05T09:14:19.679Z,1010.25
2019-05-05T09:15:19.670Z,1010.25
2019-05-05T09:16:19.685Z,1010.28
2019-05-05T09:19:19.921Z,1010.43
2019-05-05T09:20:19.772Z,1010.29
2019-05-05T09:21:25.011Z,1010.28
2019-05-05T09:22:20.328Z,1010.28
2019-05-05T09:23:19.567Z,1010.32
2019-05-05T09:24:19.610Z,1010.36
2019-05-05T09:25:19.533Z,1010.36
2019-05-05T09:26:19.838Z,1010.41
2019-05-05T09:27:19.507Z,1010.36
2019-05-05T09:28:19.478Z,1010.39
2019-05-05T09:29:19.470Z,1010.36
2019-05-05T09:30:19.446Z,1010.41
2019-05-05T09:32:19.467Z,1010.45
2019-05-05T09:33:19.868Z,1010.49
2019-05-05T09:34:19.512Z,1010.61
2019-05-05T09:35:19.374Z,1010.56
2019-05-05T09:36:19.352Z,1010.61
2019-05-05T09:37:19.357Z,1011.26
2019-05-05T09:38:19.537Z,1012.19
2019-05-05T09:39:19.307Z,1012.64
2019-05-05T09:40:19.584Z,1012.65
2019-05-05T09:41:19.288Z,1012.86
2019-05-05T09:42:19.324Z,1013.08
2019-05-05T09:43:19.256Z,1013.25
2019-05-05T09:44:19.244Z,1013.38
2019-05-05T09:45:19.223Z,1012.41
2019-05-05T09:46:19.527Z,1010.76
2019-05-05T09:47:19.499Z,1010.58
2019-05-05T09:48:19.169Z,1010.63
2019-05-05T09:49:19.155Z,1010.65
2019-05-05T09:50:19.243Z,1010.70
2019-05-05T09:51:19.135Z,1010.66
2019-05-05T09:52:19.427Z,1010.63
2019-05-05T09:53:19.580Z,1010.60
2019-05-05T09:54:19.099Z,1010.60
2019-05-05T09:56:19.072Z,1010.51
2019-05-05T09:57:19.139Z,1010.47
2019-05-05T09:58:19.060Z,1010.48
2019-05-05T10:00:19.206Z,1010.50
2019-05-05T10:01:19.225Z,1010.48
2019-05-05T10:02:19.096Z,1010.52
2019-05-05T10:03:18.987Z,1010.54
2019-05-05T10:04:19.679Z,1010.55
2019-05-05T10:05:20.261Z,1010.52
2019-05-05T10:06:19.691Z,1010.56
2019-05-05T10:07:19.337Z,1010.58
2019-05-05T10:08:19.720Z,1010.60
2019-05-05T10:09:19.254Z,1010.66
2019-05-05T10:10:19.024Z,1010.80
2019-05-05T10:11:19.249Z,1010.91
2019-05-05T10:13:18.835Z,1010.85
2019-05-05T10:14:18.896Z,1010.70
2019-05-05T10:15:18.808Z,1010.66
2019-05-05T10:16:18.855Z,1010.61
2019-05-05T10:17:19.089Z,1010.58
2019-05-05T10:18:19.893Z,1010.64
2019-05-05T10:19:18.752Z,1010.72
2019-05-05T10:20:18.846Z,1010.62
2019-05-05T10:21:18.796Z,1010.60
2019-05-05T10:22:18.734Z,1010.62
2019-05-05T10:23:19.051Z,1010.64
2019-05-05T10:24:28.674Z,1010.66
2019-05-05T10:25:18.813Z,1010.69
2019-05-05T10:26:18.664Z,1010.66
2019-05-05T10:27:18.632Z,1010.65
2019-05-05T10:28:18.793Z,1010.65
2019-05-05T10:29:18.909Z,1010.67
2019-05-05T10:30:18.653Z,1010.65
2019-05-05T10:31:18.584Z,1010.66
2019-05-05T10:32:18.571Z,1010.67
2019-05-05T10:33:18.612Z,1010.83
2019-05-05T10:34:18.525Z,1010.99
2019-05-05T10:35:18.515Z,1010.81
2019-05-05T10:36:18.864Z,1010.87
2019-05-05T10:37:18.477Z,1010.82
2019-05-05T10:38:18.459Z,1011.94
2019-05-05T10:39:18.453Z,1011.86
2019-05-05T10:40:18.936Z,1011.95
2019-05-05T10:41:18.630Z,1011.93
2019-05-05T10:43:18.911Z,1011.94
2019-05-05T10:44:18.724Z,1011.71
2019-05-05T10:45:19.131Z,1011.94
2019-05-05T10:46:18.412Z,1011.94
2019-05-05T10:47:18.728Z,1011.05
2019-05-05T10:48:18.509Z,1010.92
2019-05-05T10:49:18.367Z,1010.78
2019-05-05T10:50:18.664Z,1010.86
2019-05-05T10:51:18.465Z,1010.81
2019-05-05T10:52:18.314Z,1010.85
2019-05-05T10:53:18.296Z,1011.76
2019-05-05T10:54:18.260Z,1012.17
2019-05-05T10:55:18.320Z,1012.13
2019-05-05T10:57:18.558Z,1012.19
2019-05-05T10:58:18.323Z,1012.13
2019-05-05T10:59:18.446Z,1012.14
2019-05-05T11:00:18.741Z,1011.65
2019-05-05T11:01:18.285Z,1010.65
2019-05-05T11:02:18.399Z,1010.58
2019-05-05T11:03:18.477Z,1011.39
2019-05-05T11:04:18.438Z,1011.68
2019-05-05T11:05:18.224Z,1012.25
2019-05-05T11:06:18.249Z,1012.36
2019-05-05T11:07:18.295Z,1011.44
2019-05-05T11:08:18.184Z,1010.49
2019-05-05T11:09:18.110Z,1010.50
2019-05-05T11:10:18.396Z,1010.45
2019-05-05T11:11:18.085Z,1010.42
2019-05-05T11:12:18.406Z,1011.78
2019-05-05T11:13:18.075Z,1011.76
2019-05-05T11:14:18.052Z,1011.82
2019-05-05T11:15:18.062Z,1011.78
2019-05-05T11:16:20.346Z,1011.73
2019-05-05T11:17:18.433Z,1011.70
2019-05-05T11:18:18.011Z,1011.64
2019-05-05T11:19:18.194Z,1011.71
2019-05-05T11:20:18.031Z,1010.55
2019-05-05T11:21:17.982Z,1010.48
2019-05-05T11:24:18.489Z,1010.71
2019-05-05T11:25:17.944Z,1011.48
2019-05-05T11:26:18.011Z,1011.17
2019-05-05T11:27:17.945Z,1010.63
2019-05-05T11:28:17.930Z,1010.84
2019-05-05T11:29:17.950Z,1010.71
2019-05-05T11:30:17.907Z,1010.74
2019-05-05T11:31:17.937Z,1010.68
2019-05-05T11:32:18.002Z,1010.72
2019-05-05T11:33:17.983Z,1010.74
2019-05-05T11:34:17.913Z,1010.69
2019-05-05T11:35:17.869Z,1011.25
2019-05-05T11:36:18.180Z,1011.25
2019-05-05T11:37:17.852Z,1011.18
2019-05-05T11:38:17.856Z,1011.15
2019-05-05T11:39:17.887Z,1011.18
2019-05-05T11:41:17.823Z,1011.20
2019-05-05T11:43:18.195Z,1011.18
2019-05-05T11:45:18.932Z,1010.71
2019-05-05T11:46:17.750Z,1010.45
2019-05-05T11:47:18.104Z,1010.53
2019-05-05T11:48:18.138Z,1010.51
2019-05-05T11:49:18.047Z,1010.51
2019-05-05T11:50:17.839Z,1010.53
2019-05-05T11:51:17.716Z,1010.89
2019-05-05T11:52:17.817Z,1011.30
2019-05-05T11:53:17.886Z,1011.26
2019-05-05T11:54:18.039Z,1010.83
2019-05-05T11:55:17.858Z,1011.27
2019-05-05T11:56:17.968Z,1011.31
2019-05-05T11:57:17.702Z,1010.58
2019-05-05T11:59:17.646Z,1010.44
2019-05-05T12:00:17.927Z,1010.42
2019-05-05T12:01:17.631Z,1010.44
2019-05-05T12:02:18.000Z,1010.38
2019-05-05T12:03:18.147Z,1010.40
2019-05-05T12:04:17.700Z,1010.35
2019-05-05T12:05:17.686Z,1010.36
2019-05-05T12:06:18.656Z,1010.42
2019-05-05T12:07:18.028Z,1010.41
2019-05-05T12:08:17.839Z,1010.45
2019-05-05T12:09:17.666Z,1010.49
2019-05-05T12:10:17.928Z,1010.42
2019-05-05T12:11:18.099Z,1010.48
2019-05-05T12:12:17.637Z,1010.51
2019-05-05T12:13:17.827Z,1010.56
2019-05-05T12:14:18.899Z,1010.98
2019-05-05T12:15:17.584Z,1011.19
2019-05-05T12:17:17.571Z,1010.65
2019-05-05T12:18:17.639Z,1010.49
2019-05-05T12:19:17.554Z,1010.43
2019-05-05T12:21:17.994Z,1010.74
2019-05-05T12:23:17.495Z,1011.06
2019-05-05T12:24:17.554Z,1011.08
2019-05-05T12:25:27.706Z,1010.61
2019-05-05T12:26:17.702Z,1010.53
2019-05-05T12:27:18.112Z,1010.46
2019-05-05T12:28:17.412Z,1010.49
2019-05-05T12:31:17.780Z,1010.51
2019-05-05T12:32:17.855Z,1010.46
2019-05-05T12:33:17.383Z,1010.38
2019-05-05T12:34:20.053Z,1010.37
2019-05-05T12:36:17.580Z,1010.88
2019-05-05T12:37:17.960Z,1010.98
2019-05-05T12:38:17.388Z,1010.90
2019-05-05T12:39:17.332Z,1010.97
2019-05-05T12:41:17.404Z,1010.87
2019-05-05T12:42:18.302Z,1010.91
2019-05-05T12:43:17.314Z,1010.84
2019-05-05T12:44:17.395Z,1010.92
2019-05-05T12:45:17.371Z,1010.90
2019-05-05T12:46:17.160Z,1010.93
2019-05-05T12:47:17.453Z,1010.68
2019-05-05T12:48:17.142Z,1010.90
2019-05-05T12:49:18.125Z,1010.44
2019-05-05T12:50:17.312Z,1010.51
2019-05-05T12:52:17.288Z,1010.55
2019-05-05T12:53:17.271Z,1010.84
2019-05-05T12:54:18.517Z,1010.47
2019-05-05T12:55:20.234Z,1010.84
2019-05-05T12:56:17.112Z,1010.81
2019-05-05T12:57:17.065Z,1010.90
2019-05-05T12:58:17.357Z,1010.93
2019-05-05T12:59:22.228Z,1010.70
2019-05-05T13:00:17.240Z,1010.95
2019-05-05T13:01:17.025Z,1010.89
2019-05-05T13:02:17.012Z,1010.91
2019-05-05T13:03:17.035Z,1010.91
2019-05-05T13:04:17.337Z,1011.00
2019-05-05T13:05:17.023Z,1010.84
2019-05-05T13:06:17.279Z,1010.41
2019-05-05T13:07:16.964Z,1010.39
2019-05-05T13:08:16.954Z,1010.29
2019-05-05T13:09:17.043Z,1010.30
2019-05-05T13:10:16.952Z,1010.37
2019-05-05T13:11:17.106Z,1010.19
2019-05-05T13:13:17.287Z,1010.15
2019-05-05T13:14:17.039Z,1010.06
2019-05-05T13:15:16.906Z,1010.06
2019-05-05T13:16:16.881Z,1010.06
2019-05-05T13:17:17.081Z,1010.10
2019-05-05T13:18:16.953Z,1010.10
2019-05-05T13:19:17.314Z,1010.11
2019-05-05T13:20:16.856Z,1010.03
2019-05-05T13:21:16.838Z,1010.07
2019-05-05T13:22:16.913Z,1010.10
2019-05-05T13:23:17.076Z,1010.30
2019-05-05T13:24:16.822Z,1010.09
2019-05-05T13:25:17.231Z,1010.09
2019-05-05T13:27:19.374Z,1010.15
2019-05-05T13:28:16.873Z,1010.16
2019-05-05T13:30:16.774Z,1010.13
2019-05-05T13:31:17.483Z,1010.18
2019-05-05T13:32:16.753Z,1010.18
2019-05-05T13:33:17.027Z,1010.17
2019-05-05T13:34:16.667Z,1010.23
2019-05-05T13:35:16.665Z,1010.24
2019-05-05T13:37:17.312Z,1010.30
2019-05-05T13:38:16.865Z,1010.32
2019-05-05T13:39:16.584Z,1010.32